createdAt,value
2022-08-04T00:02:15.766Z,74.99
2022-08-04T00:05:00.350Z,75.09
2022-08-04T00:07:52.808Z,75.21
2022-08-04T00:10:28.222Z,75.46
2022-08-04T00:13:00.389Z,75.33
2022-08-04T00:15:33.792Z,75.62
2022-08-04T00:18:08.634Z,75.49
2022-08-04T00:20:42.413Z,75.46
2022-08-04T00:23:14.866Z,75.84
2022-08-04T00:25:46.293Z,75.71
2022-08-04T00:28:17.823Z,76.15
2022-08-04T00:30:49.550Z,76.15
2022-08-04T00:33:21.125Z,76.11
2022-08-04T00:35:52.730Z,76.22
2022-08-04T00:38:25.188Z,76.75
2022-08-04T00:41:38.445Z,76.44
2022-08-04T00:44:55.487Z,76.41
2022-08-04T00:48:27.224Z,76.64
2022-08-04T00:51:15.095Z,76.46
2022-08-04T00:54:28.478Z,76.45
2022-08-04T00:57:34.115Z,76.18
2022-08-04T01:00:10.310Z,76.29
2022-08-04T01:03:12.008Z,76.70
2022-08-04T01:06:09.358Z,76.91
2022-08-04T01:09:03.542Z,76.57
2022-08-04T01:11:56.189Z,76.46
2022-08-04T01:14:51.589Z,76.47
2022-08-04T01:17:23.184Z,76.37
2022-08-04T01:20:06.926Z,76.45
2022-08-04T01:23:16.605Z,76.85
2022-08-04T01:26:02.713Z,76.38
2022-08-04T01:29:04.300Z,77.32
2022-08-04T01:31:50.443Z,77.25
2022-08-04T01:34:22.900Z,76.96
2022-08-04T01:37:19.091Z,77.24
2022-08-04T01:39:59.959Z,77.34
2022-08-04T01:42:35.778Z,77.53
2022-08-04T01:45:08.449Z,77.62
2022-08-04T01:47:50.354Z,77.33
2022-08-04T01:50:23.033Z,77.23
2022-08-04T01:52:55.094Z,77.61
2022-08-04T01:55:55.301Z,77.57
2022-08-04T01:58:21.686Z,77.27
2022-08-04T02:01:09.308Z,77.97
2022-08-04T02:04:20.113Z,77.68
2022-08-04T02:06:48.466Z,77.79
2022-08-04T02:09:26.589Z,77.86
2022-08-04T02:12:05.395Z,78.15
2022-08-04T02:14:57.110Z,77.99
2022-08-04T02:17:42.806Z,78.42
2022-08-04T02:20:43.994Z,78.46
2022-08-04T02:23:26.015Z,78.17
2022-08-04T02:26:01.925Z,78.23
2022-08-04T02:28:38.431Z,78.20
2022-08-04T02:31:22.571Z,77.29
2022-08-04T02:34:09.236Z,77.73
2022-08-04T02:36:42.373Z,78.03
2022-08-04T02:39:19.835Z,77.95
2022-08-04T02:41:52.923Z,78.41
2022-08-04T02:44:28.125Z,78.22
2022-08-04T02:47:00.764Z,78.28
2022-08-04T02:49:36.695Z,78.46
2022-08-04T02:52:14.622Z,78.46
2022-08-04T02:54:51.039Z,78.57
2022-08-04T02:57:26.844Z,78.58
2022-08-04T03:00:10.525Z,78.29
2022-08-04T03:02:58.390Z,78.30
2022-08-04T03:06:00.525Z,78.46
2022-08-04T03:08:39.074Z,78.55
2022-08-04T03:11:28.683Z,78.76
2022-08-04T03:14:16.009Z,78.70
2022-08-04T03:17:29.295Z,78.75
2022-08-04T03:20:38.393Z,79.09
2022-08-04T03:23:34.952Z,78.85
2022-08-04T03:26:40.408Z,79.12
2022-08-04T03:29:57.532Z,79.04
2022-08-04T03:32:49.602Z,78.82
2022-08-04T03:35:51.329Z,79.06
2022-08-04T03:38:42.366Z,78.80
2022-08-04T03:42:03.909Z,79.07
2022-08-04T03:45:23.503Z,78.83
2022-08-04T03:48:30.470Z,78.65
2022-08-04T03:51:47.821Z,79.19
2022-08-04T03:54:37.884Z,78.60
2022-08-04T03:57:30.808Z,78.86
2022-08-04T04:00:08.593Z,78.80
2022-08-04T04:03:26.790Z,78.68
2022-08-04T04:06:06.707Z,78.54
2022-08-04T04:09:28.709Z,78.54
2022-08-04T04:12:46.671Z,77.95
2022-08-04T04:15:49.788Z,78.26
2022-08-04T04:18:39.261Z,78.26
2022-08-04T04:21:27.250Z,77.75
2022-08-04T04:24:33.867Z,77.73
2022-08-04T04:27:28.291Z,77.58
2022-08-04T04:30:37.264Z,77.74
2022-08-04T04:33:20.761Z,77.43
2022-08-04T04:36:19.317Z,77.41
2022-08-04T04:39:11.779Z,77.21
2022-08-04T04:42:01.763Z,77.09
2022-08-04T04:44:39.206Z,76.84
2022-08-04T04:47:43.016Z,76.84
2022-08-04T04:50:45.094Z,76.88
2022-08-04T04:53:45.041Z,76.49
2022-08-04T04:56:31.360Z,76.67
2022-08-04T04:59:03.486Z,76.05
2022-08-04T05:02:12.590Z,75.98
2022-08-04T05:05:22.233Z,75.71
2022-08-04T05:08:44.231Z,75.44
2022-08-04T05:11:29.505Z,75.33
2022-08-04T05:14:35.208Z,75.21
2022-08-04T05:17:04.622Z,74.89
2022-08-04T05:20:01.036Z,74.24
2022-08-04T05:22:55.016Z,73.90
2022-08-04T05:25:32.340Z,73.77
2022-08-04T05:28:09.955Z,73.31
2022-08-04T05:30:49.508Z,72.66
2022-08-04T05:33:32.441Z,72.71
2022-08-04T05:36:23.495Z,71.74
2022-08-04T05:39:00.684Z,71.72
2022-08-04T05:41:45.355Z,71.27
2022-08-04T05:44:21.352Z,70.57
2022-08-04T05:46:56.116Z,70.05
2022-08-04T05:49:29.186Z,69.92
2022-08-04T05:52:02.752Z,69.47
2022-08-04T05:54:35.790Z,69.34
2022-08-04T05:57:08.509Z,69.15
2022-08-04T05:59:42.693Z,67.99
2022-08-04T06:02:17.733Z,68.20
2022-08-04T06:04:51.052Z,67.84
2022-08-04T06:07:22.788Z,67.45
2022-08-04T06:09:55.175Z,67.41
2022-08-04T06:12:49.508Z,66.64
2022-08-04T06:15:25.365Z,66.83
2022-08-04T06:18:33.624Z,65.90
2022-08-04T06:20:55.918Z,65.29
2022-08-04T06:23:31.389Z,64.59
2022-08-04T06:26:03.959Z,64.46
2022-08-04T06:28:36.411Z,63.80
2022-08-04T06:32:31.126Z,63.28
2022-08-04T06:34:05.091Z,62.13
2022-08-04T06:36:38.034Z,61.42
2022-08-04T06:39:11.349Z,60.86
2022-08-04T06:42:17.047Z,60.41
2022-08-04T06:44:36.377Z,60.38
2022-08-04T06:47:10.130Z,59.73
2022-08-04T06:51:25.390Z,59.07
2022-08-04T06:52:44.782Z,59.27
2022-08-04T06:55:16.228Z,58.86
2022-08-04T06:57:48.190Z,59.31
2022-08-04T07:00:19.516Z,59.00
2022-08-04T07:02:53.418Z,58.94
2022-08-04T07:05:25.266Z,58.40
2022-08-04T07:07:58.731Z,58.22
2022-08-04T07:10:30.838Z,57.37
2022-08-04T07:13:03.014Z,57.31
2022-08-04T07:15:36.535Z,56.83
2022-08-04T07:18:07.935Z,56.46
2022-08-04T07:20:43.670Z,54.99
2022-08-04T07:23:21.284Z,53.62
2022-08-04T07:26:12.428Z,53.39
2022-08-04T07:28:44.980Z,51.97
2022-08-04T07:31:34.612Z,51.06
2022-08-04T07:34:20.669Z,50.19
2022-08-04T07:36:55.182Z,49.93
2022-08-04T07:39:31.317Z,49.49
2022-08-04T07:42:04.149Z,49.11
2022-08-04T07:44:36.043Z,48.42
2022-08-04T07:47:08.472Z,47.01
2022-08-04T07:49:56.709Z,46.32
2022-08-04T07:52:29.551Z,45.67
2022-08-04T07:55:01.241Z,45.74
2022-08-04T07:57:40.194Z,45.25
2022-08-04T08:00:16.688Z,44.91
2022-08-04T08:02:54.672Z,44.21
2022-08-04T08:05:26.373Z,44.10
2022-08-04T08:07:58.278Z,43.56
2022-08-04T08:10:29.717Z,44.23
2022-08-04T08:13:01.820Z,43.41
2022-08-04T08:15:33.750Z,42.56
2022-08-04T08:18:05.160Z,42.02
2022-08-04T08:20:36.562Z,42.14
2022-08-04T08:23:08.227Z,41.41
2022-08-04T08:25:39.700Z,41.31
2022-08-04T08:28:11.315Z,40.60
2022-08-04T08:30:42.827Z,40.84
2022-08-04T08:33:16.554Z,40.34
2022-08-04T08:36:29.047Z,38.74
2022-08-04T08:39:11.999Z,39.32
2022-08-04T08:41:55.352Z,38.90
2022-08-04T08:44:57.668Z,38.93
2022-08-04T08:48:06.217Z,38.81
2022-08-04T08:51:11.778Z,38.43
2022-08-04T08:54:04.401Z,39.00
2022-08-04T08:57:14.985Z,38.76
2022-08-04T08:59:55.634Z,37.83
2022-08-04T09:03:05.362Z,36.99
2022-08-04T09:05:50.293Z,36.88
2022-08-04T09:08:58.722Z,35.46
2022-08-04T09:11:43.904Z,36.79
2022-08-04T09:14:15.198Z,37.03
2022-08-04T09:17:02.737Z,35.79
2022-08-04T09:19:39.797Z,34.62
2022-08-04T09:23:04.167Z,32.89
2022-08-04T09:25:42.582Z,33.03
2022-08-04T09:28:43.701Z,33.21
2022-08-04T09:31:19.616Z,33.13
2022-08-04T09:34:03.845Z,33.04
2022-08-04T09:36:51.300Z,32.51
2022-08-04T09:39:37.049Z,32.19
2022-08-04T09:42:45.476Z,32.52
2022-08-04T09:45:42.661Z,31.47
2022-08-04T09:48:43.978Z,30.84
2022-08-04T09:51:59.068Z,29.93
2022-08-04T09:54:40.097Z,30.40
2022-08-04T09:57:51.605Z,29.75
2022-08-04T10:00:41.131Z,31.38
2022-08-04T10:03:19.969Z,30.77
2022-08-04T10:06:19.361Z,30.12
2022-08-04T10:09:12.717Z,30.60
2022-08-04T10:11:56.549Z,29.86
2022-08-04T10:14:47.116Z,29.16
2022-08-04T10:17:52.976Z,29.58
2022-08-04T10:20:46.650Z,29.87
2022-08-04T10:23:19.000Z,29.89
2022-08-04T10:26:22.184Z,29.65
2022-08-04T10:29:03.439Z,29.84
2022-08-04T10:31:40.230Z,29.28
2022-08-04T10:34:21.915Z,28.71
2022-08-04T10:37:23.538Z,28.91
2022-08-04T10:40:37.138Z,28.81
2022-08-04T10:43:22.320Z,28.77
2022-08-04T10:46:01.743Z,28.38
2022-08-04T10:48:55.964Z,28.80
2022-08-04T10:51:57.942Z,29.11
2022-08-04T10:54:55.275Z,28.54
2022-08-04T10:57:36.050Z,28.19
2022-08-04T11:00:19.851Z,28.18
2022-08-04T11:02:59.433Z,28.10
2022-08-04T11:05:44.030Z,28.27
2022-08-04T11:08:27.005Z,28.33
2022-08-04T11:11:09.268Z,28.05
2022-08-04T11:14:03.296Z,27.10
2022-08-04T11:16:39.014Z,27.55
2022-08-04T11:19:44.797Z,27.60
2022-08-04T11:22:23.198Z,27.63
2022-08-04T11:25:26.340Z,26.95
2022-08-04T11:28:26.558Z,26.90
2022-08-04T11:31:04.543Z,27.30
2022-08-04T11:33:47.090Z,27.95
2022-08-04T11:36:34.451Z,27.24
2022-08-04T11:39:12.679Z,27.13
2022-08-04T11:42:14.797Z,27.80
2022-08-04T11:44:49.285Z,28.18
2022-08-04T11:47:39.673Z,27.84
2022-08-04T11:50:35.216Z,27.62
2022-08-04T11:53:07.592Z,27.57
2022-08-04T11:56:06.931Z,27.44
2022-08-04T11:58:32.337Z,26.76
2022-08-04T12:01:21.813Z,27.01
2022-08-04T12:04:20.133Z,27.00
2022-08-04T12:07:29.567Z,27.76
2022-08-04T12:10:38.020Z,27.01
2022-08-04T12:13:45.974Z,26.79
2022-08-04T12:16:40.565Z,26.22
2022-08-04T12:19:34.955Z,26.15
2022-08-04T12:22:31.480Z,26.50
2022-08-04T12:25:13.666Z,26.75
2022-08-04T12:27:50.344Z,26.64
2022-08-04T12:30:58.445Z,26.50
2022-08-04T12:34:03.083Z,26.79
2022-08-04T12:36:39.082Z,26.15
2022-08-04T12:39:15.667Z,26.28
2022-08-04T12:42:01.587Z,25.71
2022-08-04T12:44:38.976Z,25.68
2022-08-04T12:47:27.513Z,25.92
2022-08-04T12:50:03.375Z,25.83
2022-08-04T12:53:06.915Z,25.93
2022-08-04T12:55:44.190Z,25.79
2022-08-04T12:58:47.593Z,26.15
2022-08-04T13:02:09.029Z,24.70
2022-08-04T13:04:16.641Z,24.97
2022-08-04T13:07:02.308Z,25.04
2022-08-04T13:09:34.410Z,24.28
2022-08-04T13:12:16.187Z,24.77
2022-08-04T13:14:52.716Z,24.39
2022-08-04T13:17:28.082Z,24.04
2022-08-04T13:20:01.690Z,24.64
2022-08-04T13:22:35.095Z,24.51
2022-08-04T13:26:41.785Z,24.36
2022-08-04T13:28:00.098Z,23.87
2022-08-04T13:30:33.171Z,24.71
2022-08-04T13:33:05.619Z,24.33
2022-08-04T13:35:55.676Z,24.63
2022-08-04T13:38:29.566Z,24.62
2022-08-04T13:41:05.356Z,24.55
2022-08-04T13:43:51.595Z,24.83
2022-08-04T13:47:04.826Z,23.95
2022-08-04T13:49:42.942Z,23.61
2022-08-04T13:52:26.561Z,23.69
2022-08-04T13:54:57.924Z,24.28
2022-08-04T13:57:43.021Z,24.33
2022-08-04T14:00:16.874Z,24.61
2022-08-04T14:03:19.031Z,24.46
2022-08-04T14:06:09.385Z,25.01
2022-08-04T14:08:45.869Z,25.49
2022-08-04T14:12:10.800Z,25.14
2022-08-04T14:14:21.517Z,25.58
2022-08-04T14:17:06.134Z,26.16
2022-08-04T14:19:46.291Z,26.17
2022-08-04T14:22:31.005Z,25.43
2022-08-04T14:25:16.194Z,25.55
2022-08-04T14:27:56.197Z,25.33
2022-08-04T14:30:37.024Z,25.34
2022-08-04T14:34:02.448Z,25.57
2022-08-04T14:36:04.604Z,24.86
2022-08-04T14:39:00.429Z,25.79
2022-08-04T14:41:45.370Z,26.19
2022-08-04T14:44:17.253Z,26.17
2022-08-04T14:46:54.786Z,26.52
2022-08-04T14:49:28.736Z,26.64
2022-08-04T14:52:02.811Z,27.18
2022-08-04T14:54:35.281Z,27.06
2022-08-04T14:57:08.020Z,26.95
2022-08-04T14:59:59.786Z,27.11
2022-08-04T15:02:35.883Z,27.26
2022-08-04T15:06:02.267Z,28.93
2022-08-04T15:07:59.761Z,31.39
2022-08-04T15:10:31.647Z,33.24
2022-08-04T15:13:03.352Z,34.91
2022-08-04T15:15:37.343Z,36.77
2022-08-04T15:18:13.066Z,37.93
2022-08-04T15:20:44.500Z,39.09
2022-08-04T15:23:16.778Z,40.17
2022-08-04T15:25:54.412Z,41.39
2022-08-04T15:28:29.291Z,44.03
2022-08-04T15:31:03.094Z,48.59
2022-08-04T15:33:39.359Z,53.24
2022-08-04T15:36:15.415Z,55.70
2022-08-04T15:39:15.448Z,56.75
2022-08-04T15:42:13.955Z,59.28
2022-08-04T15:45:14.718Z,60.94
2022-08-04T15:48:04.341Z,63.33
2022-08-04T15:50:56.062Z,63.80
2022-08-04T15:54:03.617Z,64.55
2022-08-04T15:56:44.093Z,66.38
2022-08-04T15:59:58.507Z,67.11
2022-08-04T16:02:40.892Z,68.30
2022-08-04T16:05:18.181Z,68.46
2022-08-04T16:08:09.773Z,69.29
2022-08-04T16:10:44.379Z,69.22
2022-08-04T16:13:19.706Z,69.88
2022-08-04T16:15:55.594Z,70.07
2022-08-04T16:18:29.673Z,70.47
2022-08-04T16:21:04.081Z,70.15
2022-08-04T16:24:00.702Z,71.01
2022-08-04T16:26:36.671Z,71.51
2022-08-04T16:29:39.960Z,72.85
2022-08-04T16:32:15.521Z,72.46
2022-08-04T16:34:56.959Z,72.91
2022-08-04T16:37:38.855Z,73.38
2022-08-04T16:40:38.808Z,74.05
2022-08-04T16:43:16.449Z,74.06
2022-08-04T16:46:01.504Z,74.25
2022-08-04T16:48:36.621Z,74.67
2022-08-04T16:51:09.778Z,74.88
2022-08-04T16:53:52.005Z,74.82
2022-08-04T16:56:34.708Z,75.19
2022-08-04T16:59:11.993Z,75.84
2022-08-04T17:01:51.551Z,75.86
2022-08-04T17:04:34.221Z,76.34
2022-08-04T17:07:06.329Z,76.07
2022-08-04T17:09:48.773Z,76.46
2022-08-04T17:12:20.289Z,76.88
2022-08-04T17:14:52.270Z,76.86
2022-08-04T17:17:25.740Z,76.33
2022-08-04T17:20:17.498Z,76.48
2022-08-04T17:22:49.097Z,76.92
2022-08-04T17:25:20.385Z,76.41
2022-08-04T17:28:26.155Z,76.90
2022-08-04T17:31:00.524Z,76.53
2022-08-04T17:33:54.273Z,76.99
2022-08-04T17:36:31.881Z,76.55
2022-08-04T17:39:16.964Z,76.57
2022-08-04T17:41:54.977Z,76.84
2022-08-04T17:44:37.323Z,76.73
2022-08-04T17:47:17.254Z,76.62
2022-08-04T17:49:54.642Z,76.28
2022-08-04T17:52:41.343Z,76.38
2022-08-04T17:55:20.700Z,76.39
2022-08-04T17:58:20.966Z,76.33
2022-08-04T18:01:23.770Z,76.06
2022-08-04T18:03:58.009Z,76.29
2022-08-04T18:06:29.647Z,75.85
2022-08-04T18:09:57.404Z,76.08
2022-08-04T18:12:03.281Z,75.93
2022-08-04T18:14:50.034Z,76.14
2022-08-04T18:18:20.853Z,76.15
2022-08-04T18:20:31.087Z,76.40
2022-08-04T18:23:03.201Z,76.85
2022-08-04T18:25:51.316Z,76.88
2022-08-04T18:28:26.995Z,76.61
2022-08-04T18:31:00.032Z,76.72
2022-08-04T18:33:40.895Z,76.84
2022-08-04T18:36:33.378Z,76.49
2022-08-04T18:39:12.006Z,76.27
2022-08-04T18:42:02.057Z,76.05
2022-08-04T18:44:52.509Z,76.05
2022-08-04T18:47:29.881Z,75.93
2022-08-04T18:50:40.009Z,75.86
2022-08-04T18:52:54.462Z,76.14
2022-08-04T18:55:56.226Z,76.07
2022-08-04T18:58:26.913Z,76.01
2022-08-04T19:01:00.713Z,75.83
2022-08-04T19:03:33.434Z,75.61
2022-08-04T19:06:07.446Z,75.48
2022-08-04T19:08:42.208Z,75.27
2022-08-04T19:11:37.684Z,75.36
2022-08-04T19:14:07.423Z,75.35
2022-08-04T19:16:45.954Z,75.47
2022-08-04T19:19:19.970Z,75.50
2022-08-04T19:22:00.393Z,75.61
2022-08-04T19:24:34.685Z,75.30
2022-08-04T19:27:08.436Z,75.47
2022-08-04T19:29:41.016Z,75.23
2022-08-04T19:32:16.343Z,75.37
2022-08-04T19:34:48.336Z,75.33
2022-08-04T19:38:01.010Z,75.16
2022-08-04T19:40:12.972Z,75.00
2022-08-04T19:42:45.194Z,74.30
2022-08-04T19:45:40.218Z,74.36
2022-08-04T19:48:18.874Z,73.92
2022-08-04T19:50:51.169Z,74.16
2022-08-04T19:53:37.107Z,74.03
2022-08-04T19:56:09.129Z,74.01
2022-08-04T19:58:41.911Z,74.14
2022-08-04T20:01:31.563Z,73.89
2022-08-04T20:04:11.225Z,73.90
2022-08-04T20:06:43.118Z,73.93
2022-08-04T20:09:25.023Z,74.25
2022-08-04T20:11:58.110Z,74.23
2022-08-04T20:14:32.466Z,74.16
2022-08-04T20:17:10.291Z,74.40
2022-08-04T20:19:42.214Z,74.46
2022-08-04T20:22:52.148Z,74.37
2022-08-04T20:25:27.145Z,74.34
2022-08-04T20:28:06.347Z,74.29
2022-08-04T20:30:37.841Z,74.21
2022-08-04T20:33:09.974Z,74.29
2022-08-04T20:35:45.883Z,74.25
2022-08-04T20:38:34.699Z,74.14
2022-08-04T20:41:06.129Z,73.99
2022-08-04T20:43:37.664Z,74.53
2022-08-04T20:46:18.698Z,74.63
2022-08-04T20:49:00.179Z,74.84
2022-08-04T20:51:33.752Z,75.06
2022-08-04T20:54:16.936Z,74.95
2022-08-04T20:56:55.336Z,75.44
2022-08-04T20:59:28.006Z,75.32
2022-08-04T21:01:59.458Z,75.69
2022-08-04T21:04:31.272Z,75.82
2022-08-04T21:07:10.629Z,75.99
2022-08-04T21:12:36.338Z,76.82
2022-08-04T21:15:14.510Z,76.68
2022-08-04T21:17:58.990Z,77.04
2022-08-04T21:20:42.362Z,77.52
2022-08-04T21:23:14.725Z,77.96
2022-08-04T21:25:50.641Z,78.10
2022-08-04T21:28:21.973Z,77.73
2022-08-04T21:30:59.392Z,77.53
2022-08-04T21:39:16.560Z,78.57
2022-08-04T21:42:20.059Z,78.74
2022-08-04T21:44:39.197Z,78.56
2022-08-04T21:47:32.907Z,79.04
2022-08-04T21:50:04.022Z,78.73
2022-08-04T21:52:35.327Z,78.85
2022-08-04T21:55:07.020Z,79.54
2022-08-04T21:57:38.818Z,79.15
2022-08-04T22:00:18.343Z,79.49
2022-08-04T22:02:53.192Z,79.39
2022-08-04T22:05:25.161Z,79.35
2022-08-04T22:07:56.466Z,80.01
2022-08-04T22:10:33.016Z,79.70
2022-08-04T22:13:06.861Z,80.39
2022-08-04T22:16:03.662Z,80.16
2022-08-04T22:18:30.176Z,80.26
2022-08-04T22:21:01.504Z,80.71
2022-08-04T22:23:41.839Z,81.00
2022-08-04T22:26:26.488Z,80.86
2022-08-04T22:28:58.533Z,80.56
2022-08-04T22:31:56.369Z,81.18
2022-08-04T22:34:22.154Z,80.49
2022-08-04T22:36:55.318Z,80.90
2022-08-04T22:39:27.703Z,80.75
2022-08-04T22:42:03.858Z,80.16
2022-08-04T22:44:37.970Z,80.18
2022-08-04T22:47:20.163Z,80.56
2022-08-04T22:50:13.501Z,80.30
2022-08-04T22:52:55.628Z,79.80
2022-08-04T22:55:27.748Z,80.48
2022-08-04T22:58:19.030Z,80.37
2022-08-04T23:00:53.041Z,80.20
2022-08-04T23:03:36.854Z,80.45
2022-08-04T23:06:11.560Z,80.36
2022-08-04T23:08:46.464Z,80.61
2022-08-04T23:11:19.875Z,80.70
2022-08-04T23:13:51.161Z,80.21
2022-08-04T23:16:24.554Z,80.67
2022-08-04T23:18:56.082Z,79.91
2022-08-04T23:21:27.577Z,80.34
2022-08-04T23:24:12.084Z,80.10
2022-08-04T23:26:46.874Z,80.41
2022-08-04T23:29:18.950Z,80.29
2022-08-04T23:31:59.040Z,80.32
2022-08-04T23:34:31.653Z,80.14
2022-08-04T23:37:02.999Z,80.51
2022-08-04T23:40:03.799Z,80.74
2022-08-04T23:42:25.945Z,80.56
2022-08-04T23:44:57.552Z,80.77
2022-08-04T23:48:15.962Z,80.08
2022-08-04T23:50:20.194Z,80.44
2022-08-04T23:52:52.845Z,80.77
2022-08-04T23:55:24.604Z,81.01
2022-08-04T23:58:18.611Z,81.21
